sensor_id;sensor_type;location;lat;lon;timestamp;temperature;humidity
69225;DHT22;56333;51.306;17.056;2023-04-01T00:00:24;9.71;78.40
69225;DHT22;56333;51.306;17.056;2023-04-01T00:01:54;9.68;78.30
69225;DHT22;56333;51.306;17.056;2023-04-01T00:03:24;9.65;78.40
69225;DHT22;56333;51.306;17.056;2023-04-01T00:04:55;9.65;78.53
69225;DHT22;56333;51.306;17.056;2023-04-01T00:06:24;9.65;78.72
69225;DHT22;56333;51.306;17.056;2023-04-01T00:07:54;9.67;78.85
69225;DHT22;56333;51.306;17.056;2023-04-01T00:09:23;9.67;78.95
69225;DHT22;56333;51.306;17.056;2023-04-01T00:10:52;9.68;78.97
69225;DHT22;56333;51.306;17.056;2023-04-01T00:12:22;9.69;78.90
69225;DHT22;56333;51.306;17.056;2023-04-01T00:13:51;9.68;78.80
69225;DHT22;56333;51.306;17.056;2023-04-01T00:15:20;9.66;78.70
69225;DHT22;56333;51.306;17.056;2023-04-01T00:16:49;9.64;78.60
69225;DHT22;56333;51.306;17.056;2023-04-01T00:18:18;9.63;78.53
69225;DHT22;56333;51.306;17.056;2023-04-01T00:19:47;9.60;78.53
69225;DHT22;56333;51.306;17.056;2023-04-01T00:21:17;9.58;78.70
69225;DHT22;56333;51.306;17.056;2023-04-01T00:22:47;9.59;78.82
69225;DHT22;56333;51.306;17.056;2023-04-01T00:24:15;9.59;79.00
69225;DHT22;56333;51.306;17.056;2023-04-01T00:25:45;9.59;79.13
69225;DHT22;56333;51.306;17.056;2023-04-01T00:27:14;9.61;79.25
69225;DHT22;56333;51.306;17.056;2023-04-01T00:28:43;9.62;79.30
69225;DHT22;56333;51.306;17.056;2023-04-01T00:30:13;9.63;79.28
69225;DHT22;56333;51.306;17.056;2023-04-01T00:31:44;9.65;79.18
69225;DHT22;56333;51.306;17.056;2023-04-01T00:33:13;9.66;79.10
69225;DHT22;56333;51.306;17.056;2023-04-01T00:34:42;9.65;79.00
69225;DHT22;56333;51.306;17.056;2023-04-01T00:36:12;9.65;79.07
69225;DHT22;56333;51.306;17.056;2023-04-01T00:37:45;9.65;78.90
69225;DHT22;56333;51.306;17.056;2023-04-01T00:39:15;9.65;79.00
69225;DHT22;56333;51.306;17.056;2023-04-01T00:40:45;9.66;79.00
69225;DHT22;56333;51.306;17.056;2023-04-01T00:42:15;9.68;79.10
69225;DHT22;56333;51.306;17.056;2023-04-01T00:43:45;9.69;79.20
69225;DHT22;56333;51.306;17.056;2023-04-01T00:45:34;9.71;79.28
69225;DHT22;56333;51.306;17.056;2023-04-01T00:47:05;9.74;79.30
69225;DHT22;56333;51.306;17.056;2023-04-01T00:48:35;9.77;79.32
69225;DHT22;56333;51.306;17.056;2023-04-01T00:50:08;9.78;79.25
69225;DHT22;56333;51.306;17.056;2023-04-01T00:51:37;9.78;79.13
69225;DHT22;56333;51.306;17.056;2023-04-01T00:53:08;9.77;79.05
69225;DHT22;56333;51.306;17.056;2023-04-01T00:54:38;9.78;78.93
69225;DHT22;56333;51.306;17.056;2023-04-01T00:56:14;9.77;78.95
69225;DHT22;56333;51.306;17.056;2023-04-01T00:57:47;9.76;78.80
69225;DHT22;56333;51.306;17.056;2023-04-01T00:59:23;9.77;78.80
69225;DHT22;56333;51.306;17.056;2023-04-01T01:00:55;9.77;78.90
69225;DHT22;56333;51.306;17.056;2023-04-01T01:02:27;9.78;78.97
69225;DHT22;56333;51.306;17.056;2023-04-01T01:03:57;9.80;79.10
69225;DHT22;56333;51.306;17.056;2023-04-01T01:05:33;9.81;79.15
69225;DHT22;56333;51.306;17.056;2023-04-01T01:07:25;9.83;79.18
69225;DHT22;56333;51.306;17.056;2023-04-01T01:09:12;9.86;79.10
69225;DHT22;56333;51.306;17.056;2023-04-01T01:10:53;9.86;79.03
69225;DHT22;56333;51.306;17.056;2023-04-01T01:12:24;9.85;78.90
69225;DHT22;56333;51.306;17.056;2023-04-01T01:14:01;9.85;78.90
69225;DHT22;56333;51.306;17.056;2023-04-01T01:15:40;9.85;78.88
69225;DHT22;56333;51.306;17.056;2023-04-01T01:17:16;9.85;78.90
69225;DHT22;56333;51.306;17.056;2023-04-01T01:18:57;9.87;78.97
69225;DHT22;56333;51.306;17.056;2023-04-01T01:23:16;9.93;79.30
69225;DHT22;56333;51.306;17.056;2023-04-01T01:25:27;9.95;79.43
69225;DHT22;56333;51.306;17.056;2023-04-01T01:27:07;9.98;79.45
69225;DHT22;56333;51.306;17.056;2023-04-01T01:28:43;10.00;79.40
69225;DHT22;56333;51.306;17.056;2023-04-01T01:30:37;10.00;79.30
69225;DHT22;56333;51.306;17.056;2023-04-01T01:32:16;10.00;79.20
69225;DHT22;56333;51.306;17.056;2023-04-01T01:34:08;9.99;79.22
69225;DHT22;56333;51.306;17.056;2023-04-01T01:35:47;9.98;79.20
69225;DHT22;56333;51.306;17.056;2023-04-01T01:37:18;9.98;79.45
69225;DHT22;56333;51.306;17.056;2023-04-01T01:38:50;9.98;79.43
69225;DHT22;56333;51.306;17.056;2023-04-01T01:40:20;9.99;79.55
69225;DHT22;56333;51.306;17.056;2023-04-01T01:41:52;10.01;79.65
69225;DHT22;56333;51.306;17.056;2023-04-01T01:43:24;10.03;79.78
69225;DHT22;56333;51.306;17.056;2023-04-01T01:44:58;10.06;79.88
69225;DHT22;56333;51.306;17.056;2023-04-01T01:46:30;10.07;79.88
69225;DHT22;56333;51.306;17.056;2023-04-01T01:48:00;10.08;79.90
69225;DHT22;56333;51.306;17.056;2023-04-01T01:49:32;10.07;79.95
69225;DHT22;56333;51.306;17.056;2023-04-01T01:51:02;10.05;79.85
69225;DHT22;56333;51.306;17.056;2023-04-01T01:52:33;10.04;79.95
69225;DHT22;56333;51.306;17.056;2023-04-01T01:54:02;10.06;79.95
69225;DHT22;56333;51.306;17.056;2023-04-01T01:55:32;10.06;80.22
69225;DHT22;56333;51.306;17.056;2023-04-01T01:57:05;10.10;80.32
69225;DHT22;56333;51.306;17.056;2023-04-01T01:58:41;10.11;80.45
69225;DHT22;56333;51.306;17.056;2023-04-01T02:00:16;10.15;80.57
69225;DHT22;56333;51.306;17.056;2023-04-01T02:01:48;10.18;80.60
69225;DHT22;56333;51.306;17.056;2023-04-01T02:03:20;10.22;80.68
69225;DHT22;56333;51.306;17.056;2023-04-01T02:04:51;10.24;80.63
69225;DHT22;56333;51.306;17.056;2023-04-01T02:06:24;10.26;80.53
69225;DHT22;56333;51.306;17.056;2023-04-01T02:07:59;10.25;80.43
69225;DHT22;56333;51.306;17.056;2023-04-01T02:09:32;10.25;80.32
69225;DHT22;56333;51.306;17.056;2023-04-01T02:11:03;10.26;80.30
69225;DHT22;56333;51.306;17.056;2023-04-01T02:12:37;10.26;80.35
69225;DHT22;56333;51.306;17.056;2023-04-01T02:14:08;10.27;80.43
69225;DHT22;56333;51.306;17.056;2023-04-01T02:15:42;10.28;80.55
69225;DHT22;56333;51.306;17.056;2023-04-01T02:17:17;10.30;80.65
69225;DHT22;56333;51.306;17.056;2023-04-01T02:18:50;10.32;80.70
69225;DHT22;56333;51.306;17.056;2023-04-01T02:20:22;10.33;80.82
69225;DHT22;56333;51.306;17.056;2023-04-01T02:21:57;10.35;80.82
69225;DHT22;56333;51.306;17.056;2023-04-01T02:23:30;10.36;80.85
69225;DHT22;56333;51.306;17.056;2023-04-01T02:25:03;10.38;80.80
69225;DHT22;56333;51.306;17.056;2023-04-01T02:26:35;10.39;80.75
69225;DHT22;56333;51.306;17.056;2023-04-01T02:28:06;10.40;80.63
69225;DHT22;56333;51.306;17.056;2023-04-01T02:29:37;10.40;80.55
69225;DHT22;56333;51.306;17.056;2023-04-01T02:31:07;10.37;80.47
69225;DHT22;56333;51.306;17.056;2023-04-01T02:32:37;10.36;80.32
69225;DHT22;56333;51.306;17.056;2023-04-01T02:34:07;10.35;80.45
69225;DHT22;56333;51.306;17.056;2023-04-01T02:35:36;10.35;80.53
69225;DHT22;56333;51.306;17.056;2023-04-01T02:37:05;10.35;80.72
69225;DHT22;56333;51.306;17.056;2023-04-01T02:38:36;10.38;80.88
69225;DHT22;56333;51.306;17.056;2023-04-01T02:40:08;10.39;80.93
69225;DHT22;56333;51.306;17.056;2023-04-01T02:41:43;10.40;80.97
69225;DHT22;56333;51.306;17.056;2023-04-01T02:43:13;10.41;80.95
69225;DHT22;56333;51.306;17.056;2023-04-01T02:44:42;10.43;80.85
69225;DHT22;56333;51.306;17.056;2023-04-01T02:46:13;10.42;80.75
69225;DHT22;56333;51.306;17.056;2023-04-01T02:47:42;10.41;80.70
69225;DHT22;56333;51.306;17.056;2023-04-01T02:49:10;10.39;80.57
69225;DHT22;56333;51.306;17.056;2023-04-01T02:50:39;10.39;80.60
69225;DHT22;56333;51.306;17.056;2023-04-01T02:52:08;10.38;80.55
69225;DHT22;56333;51.306;17.056;2023-04-01T02:53:37;10.36;80.72
69225;DHT22;56333;51.306;17.056;2023-04-01T02:55:07;10.38;80.85
69225;DHT22;56333;51.306;17.056;2023-04-01T02:56:37;10.38;80.97
69225;DHT22;56333;51.306;17.056;2023-04-01T02:58:05;10.39;80.93
69225;DHT22;56333;51.306;17.056;2023-04-01T02:59:34;10.40;81.00
69225;DHT22;56333;51.306;17.056;2023-04-01T03:01:02;10.42;81.00
69225;DHT22;56333;51.306;17.056;2023-04-01T03:02:32;10.42;80.93
69225;DHT22;56333;51.306;17.056;2023-04-01T03:04:00;10.43;80.80
69225;DHT22;56333;51.306;17.056;2023-04-01T03:05:29;10.41;80.70
69225;DHT22;56333;51.306;17.056;2023-04-01T03:06:58;10.42;80.60
69225;DHT22;56333;51.306;17.056;2023-04-01T03:08:27;10.40;80.60
69225;DHT22;56333;51.306;17.056;2023-04-01T03:09:56;10.41;80.63
69225;DHT22;56333;51.306;17.056;2023-04-01T03:11:25;10.42;80.72
69225;DHT22;56333;51.306;17.056;2023-04-01T03:12:54;10.43;80.90
69225;DHT22;56333;51.306;17.056;2023-04-01T03:14:23;10.45;80.97
69225;DHT22;56333;51.306;17.056;2023-04-01T03:15:52;10.46;81.05
69225;DHT22;56333;51.306;17.056;2023-04-01T03:17:21;10.47;81.05
69225;DHT22;56333;51.306;17.056;2023-04-01T03:18:50;10.47;80.95
69225;DHT22;56333;51.306;17.056;2023-04-01T03:20:22;10.49;80.85
69225;DHT22;56333;51.306;17.056;2023-04-01T03:21:52;10.49;80.75
69225;DHT22;56333;51.306;17.056;2023-04-01T03:23:21;10.49;80.63
69225;DHT22;56333;51.306;17.056;2023-04-01T03:24:50;10.49;80.50
69225;DHT22;56333;51.306;17.056;2023-04-01T03:26:19;10.48;80.45
69225;DHT22;56333;51.306;17.056;2023-04-01T03:27:48;10.47;80.50
69225;DHT22;56333;51.306;17.056;2023-04-01T03:29:17;10.48;80.63
69225;DHT22;56333;51.306;17.056;2023-04-01T03:30:46;10.47;80.72
69225;DHT22;56333;51.306;17.056;2023-04-01T03:32:15;10.49;80.82
69225;DHT22;56333;51.306;17.056;2023-04-01T03:33:45;10.50;80.85
69225;DHT22;56333;51.306;17.056;2023-04-01T03:35:14;10.52;80.90
69225;DHT22;56333;51.306;17.056;2023-04-01T03:36:43;10.50;80.82
69225;DHT22;56333;51.306;17.056;2023-04-01T03:38:12;10.52;80.75
69225;DHT22;56333;51.306;17.056;2023-04-01T03:39:41;10.49;80.57
69225;DHT22;56333;51.306;17.056;2023-04-01T03:41:13;10.48;80.55
69225;DHT22;56333;51.306;17.056;2023-04-01T03:42:43;10.48;80.50
69225;DHT22;56333;51.306;17.056;2023-04-01T03:44:12;10.45;80.45
69225;DHT22;56333;51.306;17.056;2023-04-01T03:45:46;10.42;80.50
69225;DHT22;56333;51.306;17.056;2023-04-01T03:47:16;10.43;80.63
69225;DHT22;56333;51.306;17.056;2023-04-01T03:48:45;10.43;80.88
69225;DHT22;56333;51.306;17.056;2023-04-01T03:50:14;10.45;80.95
69225;DHT22;56333;51.306;17.056;2023-04-01T03:51:44;10.45;81.03
69225;DHT22;56333;51.306;17.056;2023-04-01T03:53:13;10.47;81.05
69225;DHT22;56333;51.306;17.056;2023-04-01T03:54:43;10.48;81.13
69225;DHT22;56333;51.306;17.056;2023-04-01T03:56:12;10.48;81.15
69225;DHT22;56333;51.306;17.056;2023-04-01T03:57:43;10.49;81.03
69225;DHT22;56333;51.306;17.056;2023-04-01T03:59:13;10.48;80.88
69225;DHT22;56333;51.306;17.056;2023-04-01T04:00:43;10.48;80.80
69225;DHT22;56333;51.306;17.056;2023-04-01T04:02:12;10.49;80.72
69225;DHT22;56333;51.306;17.056;2023-04-01T04:03:41;10.47;80.75
69225;DHT22;56333;51.306;17.056;2023-04-01T04:05:11;10.47;80.70
69225;DHT22;56333;51.306;17.056;2023-04-01T04:06:41;10.47;80.82
69225;DHT22;56333;51.306;17.056;2023-04-01T04:08:10;10.49;81.03
69225;DHT22;56333;51.306;17.056;2023-04-01T04:09:39;10.51;81.13
69225;DHT22;56333;51.306;17.056;2023-04-01T04:11:08;10.53;81.20
69225;DHT22;56333;51.306;17.056;2023-04-01T04:12:38;10.56;81.20
69225;DHT22;56333;51.306;17.056;2023-04-01T04:14:08;10.55;81.15
69225;DHT22;56333;51.306;17.056;2023-04-01T04:15:37;10.55;81.03
69225;DHT22;56333;51.306;17.056;2023-04-01T04:17:06;10.53;80.93
69225;DHT22;56333;51.306;17.056;2023-04-01T04:18:40;10.49;80.88
69225;DHT22;56333;51.306;17.056;2023-04-01T04:20:10;10.49;80.85
69225;DHT22;56333;51.306;17.056;2023-04-01T04:21:40;10.48;80.75
69225;DHT22;56333;51.306;17.056;2023-04-01T04:23:10;10.47;80.82
69225;DHT22;56333;51.306;17.056;2023-04-01T04:24:39;10.47;81.05
69225;DHT22;56333;51.306;17.056;2023-04-01T04:26:12;10.46;81.15
69225;DHT22;56333;51.306;17.056;2023-04-01T04:27:47;10.48;81.28
69225;DHT22;56333;51.306;17.056;2023-04-01T04:29:15;10.50;81.38
69225;DHT22;56333;51.306;17.056;2023-04-01T04:30:45;10.50;81.47
69225;DHT22;56333;51.306;17.056;2023-04-01T04:32:13;10.52;81.40
69225;DHT22;56333;51.306;17.056;2023-04-01T04:33:42;10.52;81.30
69225;DHT22;56333;51.306;17.056;2023-04-01T04:35:11;10.53;81.20
69225;DHT22;56333;51.306;17.056;2023-04-01T04:36:40;10.52;81.18
69225;DHT22;56333;51.306;17.056;2023-04-01T04:38:10;10.50;81.13
69225;DHT22;56333;51.306;17.056;2023-04-01T04:39:39;10.52;81.10
69225;DHT22;56333;51.306;17.056;2023-04-01T04:41:11;10.52;81.28
69225;DHT22;56333;51.306;17.056;2023-04-01T04:42:43;10.52;81.38
69225;DHT22;56333;51.306;17.056;2023-04-01T04:44:13;10.56;81.47
69225;DHT22;56333;51.306;17.056;2023-04-01T04:45:42;10.61;81.57
69225;DHT22;56333;51.306;17.056;2023-04-01T04:47:11;10.64;81.60
69225;DHT22;56333;51.306;17.056;2023-04-01T04:48:41;10.65;81.53
69225;DHT22;56333;51.306;17.056;2023-04-01T04:50:10;10.65;81.40
69225;DHT22;56333;51.306;17.056;2023-04-01T04:51:41;10.67;81.38
69225;DHT22;56333;51.306;17.056;2023-04-01T04:53:12;10.68;81.22
69225;DHT22;56333;51.306;17.056;2023-04-01T04:54:42;10.67;81.18
69225;DHT22;56333;51.306;17.056;2023-04-01T04:56:12;10.66;81.10
69225;DHT22;56333;51.306;17.056;2023-04-01T04:58:03;10.66;81.10
69225;DHT22;56333;51.306;17.056;2023-04-01T04:59:33;10.68;81.22
69225;DHT22;56333;51.306;17.056;2023-04-01T05:01:42;10.70;81.30
69225;DHT22;56333;51.306;17.056;2023-04-01T05:03:12;10.71;81.45
69225;DHT22;56333;51.306;17.056;2023-04-01T05:04:40;10.72;81.45
69225;DHT22;56333;51.306;17.056;2023-04-01T05:06:10;10.73;81.45
69225;DHT22;56333;51.306;17.056;2023-04-01T05:07:41;10.74;81.38
69225;DHT22;56333;51.306;17.056;2023-04-01T05:09:10;10.73;81.30
69225;DHT22;56333;51.306;17.056;2023-04-01T05:10:39;10.72;81.25
69225;DHT22;56333;51.306;17.056;2023-04-01T05:12:10;10.70;81.20
69225;DHT22;56333;51.306;17.056;2023-04-01T05:13:54;10.68;81.25
69225;DHT22;56333;51.306;17.056;2023-04-01T05:15:22;10.68;81.43
69225;DHT22;56333;51.306;17.056;2023-04-01T05:16:52;10.70;81.60
69225;DHT22;56333;51.306;17.056;2023-04-01T05:18:21;10.70;81.68
69225;DHT22;56333;51.306;17.056;2023-04-01T05:19:50;10.70;81.75
69225;DHT22;56333;51.306;17.056;2023-04-01T05:21:19;10.72;81.80
69225;DHT22;56333;51.306;17.056;2023-04-01T05:22:49;10.73;81.80
69225;DHT22;56333;51.306;17.056;2023-04-01T05:24:22;10.75;81.72
69225;DHT22;56333;51.306;17.056;2023-04-01T05:25:51;10.77;81.65
69225;DHT22;56333;51.306;17.056;2023-04-01T05:27:21;10.75;81.70
69225;DHT22;56333;51.306;17.056;2023-04-01T05:28:50;10.74;81.53
69225;DHT22;56333;51.306;17.056;2023-04-01T05:30:19;10.75;81.57
69225;DHT22;56333;51.306;17.056;2023-04-01T05:32:30;10.73;81.60
69225;DHT22;56333;51.306;17.056;2023-04-01T05:33:59;10.73;81.75
69225;DHT22;56333;51.306;17.056;2023-04-01T05:35:28;10.74;81.85
69225;DHT22;56333;51.306;17.056;2023-04-01T05:36:57;10.77;81.95
69225;DHT22;56333;51.306;17.056;2023-04-01T05:38:26;10.78;81.97
69225;DHT22;56333;51.306;17.056;2023-04-01T05:39:55;10.78;81.90
69225;DHT22;56333;51.306;17.056;2023-04-01T05:41:24;10.80;81.82
69225;DHT22;56333;51.306;17.056;2023-04-01T05:42:54;10.79;81.75
69225;DHT22;56333;51.306;17.056;2023-04-01T05:44:23;10.79;81.68
69225;DHT22;56333;51.306;17.056;2023-04-01T05:46:33;10.79;81.63
69225;DHT22;56333;51.306;17.056;2023-04-01T05:48:19;10.80;81.60
69225;DHT22;56333;51.306;17.056;2023-04-01T05:49:48;10.82;81.72
69225;DHT22;56333;51.306;17.056;2023-04-01T05:51:17;10.84;81.78
69225;DHT22;56333;51.306;17.056;2023-04-01T05:52:46;10.86;81.82
69225;DHT22;56333;51.306;17.056;2023-04-01T05:54:15;10.88;81.88
69225;DHT22;56333;51.306;17.056;2023-04-01T05:55:44;10.90;81.82
69225;DHT22;56333;51.306;17.056;2023-04-01T05:57:13;10.93;81.80
69225;DHT22;56333;51.306;17.056;2023-04-01T05:58:42;10.93;81.68
69225;DHT22;56333;51.306;17.056;2023-04-01T06:00:17;10.93;81.53
69225;DHT22;56333;51.306;17.056;2023-04-01T06:01:46;10.93;81.47
69225;DHT22;56333;51.306;17.056;2023-04-01T06:03:15;10.94;81.40
69225;DHT22;56333;51.306;17.056;2023-04-01T06:04:44;10.94;81.50
69225;DHT22;56333;51.306;17.056;2023-04-01T06:06:15;10.98;81.63
69225;DHT22;56333;51.306;17.056;2023-04-01T06:07:49;10.97;81.70
69225;DHT22;56333;51.306;17.056;2023-04-01T06:09:25;10.98;81.80
69225;DHT22;56333;51.306;17.056;2023-04-01T06:11:03;11.00;81.82
69225;DHT22;56333;51.306;17.056;2023-04-01T06:12:50;10.98;81.85
69225;DHT22;56333;51.306;17.056;2023-04-01T06:14:33;10.98;81.70
69225;DHT22;56333;51.306;17.056;2023-04-01T06:16:13;10.96;81.65
69225;DHT22;56333;51.306;17.056;2023-04-01T06:17:56;10.94;81.53
69225;DHT22;56333;51.306;17.056;2023-04-01T06:20:06;10.92;81.55
69225;DHT22;56333;51.306;17.056;2023-04-01T06:21:55;10.92;81.60
69225;DHT22;56333;51.306;17.056;2023-04-01T06:23:52;10.90;81.60
69225;DHT22;56333;51.306;17.056;2023-04-01T06:25:57;10.94;81.72
69225;DHT22;56333;51.306;17.056;2023-04-01T06:27:59;10.95;81.82
69225;DHT22;56333;51.306;17.056;2023-04-01T06:29:57;10.98;81.82
69225;DHT22;56333;51.306;17.056;2023-04-01T06:31:44;11.00;81.82
69225;DHT22;56333;51.306;17.056;2023-04-01T06:33:43;11.00;81.70
69225;DHT22;56333;51.306;17.056;2023-04-01T06:35:40;10.98;81.68
69225;DHT22;56333;51.306;17.056;2023-04-01T06:37:45;10.99;81.53
69225;DHT22;56333;51.306;17.056;2023-04-01T06:39:58;10.99;81.53
69225;DHT22;56333;51.306;17.056;2023-04-01T06:42:00;11.04;81.72
69225;DHT22;56333;51.306;17.056;2023-04-01T06:43:53;11.05;81.80
69225;DHT22;56333;51.306;17.056;2023-04-01T06:45:58;11.08;81.82
69225;DHT22;56333;51.306;17.056;2023-04-01T06:48:01;11.07;81.78
69225;DHT22;56333;51.306;17.056;2023-04-01T06:50:39;11.06;81.57
69225;DHT22;56333;51.306;17.056;2023-04-01T06:52:16;11.03;81.55
69225;DHT22;56333;51.306;17.056;2023-04-01T06:54:38;11.03;81.43
69225;DHT22;56333;51.306;17.056;2023-04-01T06:56:57;11.04;81.57
69225;DHT22;56333;51.306;17.056;2023-04-01T06:58:33;11.06;81.65
69225;DHT22;56333;51.306;17.056;2023-04-01T07:00:19;11.11;81.82
69225;DHT22;56333;51.306;17.056;2023-04-01T07:01:57;11.15;81.93
69225;DHT22;56333;51.306;17.056;2023-04-01T07:03:32;11.18;82.00
69225;DHT22;56333;51.306;17.056;2023-04-01T07:05:05;11.24;82.05
69225;DHT22;56333;51.306;17.056;2023-04-01T07:06:39;11.27;82.00
69225;DHT22;56333;51.306;17.056;2023-04-01T07:08:13;11.31;81.90
69225;DHT22;56333;51.306;17.056;2023-04-01T07:09:48;11.35;81.78
69225;DHT22;56333;51.306;17.056;2023-04-01T07:11:28;11.34;81.55
69225;DHT22;56333;51.306;17.056;2023-04-01T07:13:41;11.33;81.55
69225;DHT22;56333;51.306;17.056;2023-04-01T07:15:20;11.34;81.60
69225;DHT22;56333;51.306;17.056;2023-04-01T07:16:54;11.35;81.70
69225;DHT22;56333;51.306;17.056;2023-04-01T07:18:32;11.35;81.72
69225;DHT22;56333;51.306;17.056;2023-04-01T07:20:10;11.38;81.72
69225;DHT22;56333;51.306;17.056;2023-04-01T07:21:47;11.41;81.80
69225;DHT22;56333;51.306;17.056;2023-04-01T07:23:28;11.44;81.70
69225;DHT22;56333;51.306;17.056;2023-04-01T07:25:45;11.43;81.55
69225;DHT22;56333;51.306;17.056;2023-04-01T07:27:37;11.43;81.38
69225;DHT22;56333;51.306;17.056;2023-04-01T07:29:11;11.45;81.22
69225;DHT22;56333;51.306;17.056;2023-04-01T07:30:52;11.46;81.25
69225;DHT22;56333;51.306;17.056;2023-04-01T07:32:38;11.46;81.22
69225;DHT22;56333;51.306;17.056;2023-04-01T07:34:15;11.49;81.43
69225;DHT22;56333;51.306;17.056;2023-04-01T07:35:52;11.52;81.50
69225;DHT22;56333;51.306;17.056;2023-04-01T07:37:29;11.53;81.55
69225;DHT22;56333;51.306;17.056;2023-04-01T07:39:11;11.56;81.60
69225;DHT22;56333;51.306;17.056;2023-04-01T07:40:59;11.57;81.43
69225;DHT22;56333;51.306;17.056;2023-04-01T07:42:44;11.60;81.30
69225;DHT22;56333;51.306;17.056;2023-04-01T07:44:34;11.60;81.18
69225;DHT22;56333;51.306;17.056;2023-04-01T07:46:17;11.62;81.15
69225;DHT22;56333;51.306;17.056;2023-04-01T07:48:06;11.63;81.05
69225;DHT22;56333;51.306;17.056;2023-04-01T07:49:52;11.68;81.13
69225;DHT22;56333;51.306;17.056;2023-04-01T07:51:34;11.72;81.22
69225;DHT22;56333;51.306;17.056;2023-04-01T07:53:14;11.76;81.32
69225;DHT22;56333;51.306;17.056;2023-04-01T07:54:56;11.83;81.40
69225;DHT22;56333;51.306;17.056;2023-04-01T07:56:38;11.87;81.35
69225;DHT22;56333;51.306;17.056;2023-04-01T07:58:20;11.89;81.18
69225;DHT22;56333;51.306;17.056;2023-04-01T08:00:03;11.90;80.97
69225;DHT22;56333;51.306;17.056;2023-04-01T08:01:46;11.90;80.78
69225;DHT22;56333;51.306;17.056;2023-04-01T08:03:33;11.88;80.60
69225;DHT22;56333;51.306;17.056;2023-04-01T08:05:22;11.87;80.50
69225;DHT22;56333;51.306;17.056;2023-04-01T08:07:01;11.87;80.55
69225;DHT22;56333;51.306;17.056;2023-04-01T08:08:44;11.90;80.70
69225;DHT22;56333;51.306;17.056;2023-04-01T08:11:15;11.93;80.78
69225;DHT22;56333;51.306;17.056;2023-04-01T08:13:20;12.01;80.85
69225;DHT22;56333;51.306;17.056;2023-04-01T08:15:37;12.04;80.70
69225;DHT22;56333;51.306;17.056;2023-04-01T08:17:36;12.05;80.57
69225;DHT22;56333;51.306;17.056;2023-04-01T08:19:24;12.07;80.47
69225;DHT22;56333;51.306;17.056;2023-04-01T08:21:19;12.09;80.28
69225;DHT22;56333;51.306;17.056;2023-04-01T08:22:57;12.11;80.18
69225;DHT22;56333;51.306;17.056;2023-04-01T08:24:38;12.17;80.30
69225;DHT22;56333;51.306;17.056;2023-04-01T08:26:08;12.22;80.22
69225;DHT22;56333;51.306;17.056;2023-04-01T08:27:45;12.29;80.28
69225;DHT22;56333;51.306;17.056;2023-04-01T08:29:20;12.36;80.20
69225;DHT22;56333;51.306;17.056;2023-04-01T08:30:57;12.40;79.97
69225;DHT22;56333;51.306;17.056;2023-04-01T08:32:34;12.43;79.88
69225;DHT22;56333;51.306;17.056;2023-04-01T08:34:10;12.44;79.65
69225;DHT22;56333;51.306;17.056;2023-04-01T08:35:48;12.43;79.47
69225;DHT22;56333;51.306;17.056;2023-04-01T08:37:21;12.43;79.43
69225;DHT22;56333;51.306;17.056;2023-04-01T08:38:57;12.44;79.32
69225;DHT22;56333;51.306;17.056;2023-04-01T08:42:59;12.46;79.60
69225;DHT22;56333;51.306;17.056;2023-04-01T08:44:56;12.50;79.47
69225;DHT22;56333;51.306;17.056;2023-04-01T08:49:12;12.47;78.78
69225;DHT22;56333;51.306;17.056;2023-04-01T08:53:16;12.46;78.68
69225;DHT22;56333;51.306;17.056;2023-04-01T08:57:06;12.49;78.70
69225;DHT22;56333;51.306;17.056;2023-04-01T08:59:11;12.55;78.57
69225;DHT22;56333;51.306;17.056;2023-04-01T09:01:17;12.59;78.40
69225;DHT22;56333;51.306;17.056;2023-04-01T09:03:13;12.62;78.10
69225;DHT22;56333;51.306;17.056;2023-04-01T09:05:38;12.65;77.88
69225;DHT22;56333;51.306;17.056;2023-04-01T09:07:59;12.64;77.97
69225;DHT22;56333;51.306;17.056;2023-04-01T09:09:57;12.65;78.05
69225;DHT22;56333;51.306;17.056;2023-04-01T09:12:06;12.67;78.10
69225;DHT22;56333;51.306;17.056;2023-04-01T09:14:40;12.73;78.32
69225;DHT22;56333;51.306;17.056;2023-04-01T09:16:40;12.78;78.35
69225;DHT22;56333;51.306;17.056;2023-04-01T09:21:17;12.85;78.15
69225;DHT22;56333;51.306;17.056;2023-04-01T09:23:28;12.82;77.82
69225;DHT22;56333;51.306;17.056;2023-04-01T09:25:31;12.84;77.78
69225;DHT22;56333;51.306;17.056;2023-04-01T09:27:29;12.82;77.75
69225;DHT22;56333;51.306;17.056;2023-04-01T09:29:05;12.85;77.80
69225;DHT22;56333;51.306;17.056;2023-04-01T09:31:36;12.86;77.82
69225;DHT22;56333;51.306;17.056;2023-04-01T09:34:31;12.86;78.00
69225;DHT22;56333;51.306;17.056;2023-04-01T09:36:38;12.86;77.80
69225;DHT22;56333;51.306;17.056;2023-04-01T09:38:23;12.86;77.65
69225;DHT22;56333;51.306;17.056;2023-04-01T09:40:17;12.86;77.60
69225;DHT22;56333;51.306;17.056;2023-04-01T09:42:08;12.84;77.50
69225;DHT22;56333;51.306;17.056;2023-04-01T09:44:21;12.84;77.80
69225;DHT22;56333;51.306;17.056;2023-04-01T09:46:11;12.82;77.65
69225;DHT22;56333;51.306;17.056;2023-04-01T09:48:00;12.83;77.45
69225;DHT22;56333;51.306;17.056;2023-04-01T09:52:00;12.84;77.72
69225;DHT22;56333;51.306;17.056;2023-04-01T09:53:53;12.84;77.85
69225;DHT22;56333;51.306;17.056;2023-04-01T09:56:08;12.84;77.65
69225;DHT22;56333;51.306;17.056;2023-04-01T09:58:13;12.81;77.57
69225;DHT22;56333;51.306;17.056;2023-04-01T10:08:21;12.85;78.13
69225;DHT22;56333;51.306;17.056;2023-04-01T10:10:51;12.90;78.15
69225;DHT22;56333;51.306;17.056;2023-04-01T10:13:31;12.94;78.07
69225;DHT22;56333;51.306;17.056;2023-04-01T10:21:11;12.89;77.22
69225;DHT22;56333;51.306;17.056;2023-04-01T10:25:53;12.87;77.55
69225;DHT22;56333;51.306;17.056;2023-04-01T10:31:49;12.97;77.57
69225;DHT22;56333;51.306;17.056;2023-04-01T10:38:51;13.15;77.22
69225;DHT22;56333;51.306;17.056;2023-04-01T10:41:37;13.17;76.97
69225;DHT22;56333;51.306;17.056;2023-04-01T10:44:50;13.17;77.03
69225;DHT22;56333;51.306;17.056;2023-04-01T10:47:20;13.20;77.28
69225;DHT22;56333;51.306;17.056;2023-04-01T10:49:45;13.20;77.45
69225;DHT22;56333;51.306;17.056;2023-04-01T10:54:23;13.17;77.28
69225;DHT22;56333;51.306;17.056;2023-04-01T10:56:42;13.11;77.13
69225;DHT22;56333;51.306;17.056;2023-04-01T10:59:03;13.07;77.15
69225;DHT22;56333;51.306;17.056;2023-04-01T11:07:39;13.29;77.80
69225;DHT22;56333;51.306;17.056;2023-04-01T11:09:49;13.34;77.75
69225;DHT22;56333;51.306;17.056;2023-04-01T11:13:02;13.39;77.32
69225;DHT22;56333;51.306;17.056;2023-04-01T11:15:31;13.39;77.03
69225;DHT22;56333;51.306;17.056;2023-04-01T11:19:58;13.39;77.00